createdAt,value
2022-11-14T00:01:10.927Z,10.82
2022-11-14T00:02:42.211Z,11.24
2022-11-14T00:04:13.601Z,12.05
2022-11-14T00:05:44.767Z,13.83
2022-11-14T00:07:16.189Z,12.82
2022-11-14T00:08:47.592Z,12.86
2022-11-14T00:10:18.936Z,12.35
2022-11-14T00:11:50.346Z,10.97
2022-11-14T00:13:21.548Z,10.80
2022-11-14T00:14:52.907Z,11.92
2022-11-14T00:16:24.459Z,12.64
2022-11-14T00:17:55.722Z,11.77
2022-11-14T00:19:27.105Z,11.77
2022-11-14T00:20:58.352Z,12.36
2022-11-14T00:22:29.780Z,11.05
2022-11-14T00:24:01.393Z,12.82
2022-11-14T00:25:32.870Z,12.06
2022-11-14T00:27:04.378Z,11.95
2022-11-14T00:28:35.625Z,10.63
2022-11-14T00:30:06.861Z,12.12
2022-11-14T00:31:38.057Z,10.86
2022-11-14T00:33:09.372Z,12.24
2022-11-14T00:34:40.563Z,12.39
2022-11-14T00:36:11.907Z,11.68
2022-11-14T00:37:43.199Z,13.24
2022-11-14T00:39:14.507Z,11.53
2022-11-14T00:40:46.143Z,11.76
2022-11-14T00:42:17.376Z,12.92
2022-11-14T00:43:48.848Z,12.00
2022-11-14T00:45:20.105Z,12.22
2022-11-14T00:46:51.393Z,11.61
2022-11-14T00:48:22.639Z,12.35
2022-11-14T00:49:54.002Z,12.66
2022-11-14T00:51:27.068Z,11.94
2022-11-14T00:52:58.457Z,14.10
2022-11-14T00:54:29.700Z,13.29
2022-11-14T00:56:00.936Z,11.63
2022-11-14T00:57:32.227Z,12.37
2022-11-14T00:59:03.558Z,11.35
2022-11-14T01:00:34.797Z,13.89
2022-11-14T01:02:06.051Z,11.52
2022-11-14T01:03:37.326Z,11.41
2022-11-14T01:05:08.550Z,12.90
2022-11-14T01:06:39.930Z,12.70
2022-11-14T01:08:11.277Z,12.80
2022-11-14T01:09:43.936Z,12.27
2022-11-14T01:11:15.205Z,10.71
2022-11-14T01:12:46.447Z,10.42
2022-11-14T01:14:17.843Z,12.17
2022-11-14T01:15:49.014Z,10.76
2022-11-14T01:17:20.389Z,12.94
2022-11-14T01:18:51.638Z,12.43
2022-11-14T01:20:22.965Z,14.02
2022-11-14T01:21:54.413Z,12.30
2022-11-14T01:23:25.787Z,11.54
2022-11-14T01:24:57.051Z,13.24
2022-11-14T01:26:28.273Z,13.33
2022-11-14T01:27:59.678Z,12.38
2022-11-14T01:29:31.272Z,12.97
2022-11-14T01:31:02.613Z,13.04
2022-11-14T01:32:33.903Z,12.12
2022-11-14T01:34:05.204Z,13.60
2022-11-14T01:35:36.597Z,12.72
2022-11-14T01:37:07.851Z,11.92
2022-11-14T01:38:39.253Z,11.17
2022-11-14T01:40:10.634Z,11.30
2022-11-14T01:41:41.860Z,10.63
2022-11-14T01:43:13.058Z,11.47
2022-11-14T01:44:44.267Z,12.93
2022-11-14T01:46:23.766Z,11.60
2022-11-14T01:47:55.000Z,12.61
2022-11-14T01:49:26.257Z,14.14
2022-11-14T01:50:57.555Z,11.94
2022-11-14T01:52:28.885Z,12.72
2022-11-14T01:54:00.336Z,10.74
2022-11-14T01:55:31.588Z,11.95
2022-11-14T01:57:02.732Z,12.28
2022-11-14T01:58:34.208Z,11.52
2022-11-14T02:00:05.481Z,15.35
2022-11-14T02:01:36.865Z,12.10
2022-11-14T02:03:08.200Z,11.59
2022-11-14T02:04:39.505Z,12.13
2022-11-14T02:06:10.701Z,13.82
2022-11-14T02:07:42.019Z,14.09
2022-11-14T02:09:13.432Z,12.45
2022-11-14T02:10:45.172Z,12.99
2022-11-14T02:12:16.715Z,12.88
2022-11-14T02:13:48.060Z,15.59
2022-11-14T02:15:19.402Z,13.70
2022-11-14T02:17:07.572Z,13.55
2022-11-14T02:18:54.139Z,15.11
2022-11-14T02:20:25.483Z,13.95
2022-11-14T02:21:56.944Z,13.55
2022-11-14T02:23:29.349Z,13.85
2022-11-14T02:25:00.667Z,13.52
2022-11-14T02:26:36.516Z,13.64
2022-11-14T02:28:07.992Z,14.53
2022-11-14T02:29:39.167Z,14.13
2022-11-14T02:31:10.402Z,13.41
2022-11-14T02:33:10.375Z,12.85
2022-11-14T02:34:42.330Z,12.89
2022-11-14T02:36:13.495Z,12.71
2022-11-14T02:37:44.693Z,14.03
2022-11-14T02:39:15.916Z,13.89
2022-11-14T02:40:47.262Z,12.06
2022-11-14T02:42:18.728Z,13.86
2022-11-14T02:43:49.995Z,12.44
2022-11-14T02:45:21.367Z,15.28
2022-11-14T02:46:52.573Z,13.90
2022-11-14T02:48:23.840Z,14.33
2022-11-14T02:49:55.156Z,13.05
2022-11-14T02:51:26.528Z,12.54
2022-11-14T02:52:57.863Z,14.18
2022-11-14T02:54:29.219Z,13.59
2022-11-14T02:56:00.572Z,14.41
2022-11-14T02:57:31.998Z,11.63
2022-11-14T02:59:04.577Z,13.63
2022-11-14T03:00:38.594Z,12.13
2022-11-14T03:02:19.808Z,11.98
2022-11-14T03:03:51.325Z,13.17
2022-11-14T03:05:22.557Z,11.50
2022-11-14T03:06:53.948Z,13.98
2022-11-14T03:08:25.163Z,12.53
2022-11-14T03:09:56.471Z,11.07
2022-11-14T03:11:27.874Z,11.53
2022-11-14T03:12:59.298Z,12.78
2022-11-14T03:14:30.647Z,11.91
2022-11-14T03:16:06.962Z,12.51
2022-11-14T03:17:38.230Z,10.89
2022-11-14T03:19:14.729Z,11.69
2022-11-14T03:20:46.235Z,12.66
2022-11-14T03:22:17.597Z,11.56
2022-11-14T03:23:48.930Z,11.20
2022-11-14T03:25:20.216Z,11.86
2022-11-14T03:26:51.418Z,12.18
2022-11-14T03:28:22.844Z,12.34
2022-11-14T03:29:54.445Z,10.93
2022-11-14T03:31:26.041Z,11.00
2022-11-14T03:32:57.369Z,11.82
2022-11-14T03:34:28.741Z,14.15
2022-11-14T03:35:59.969Z,12.04
2022-11-14T03:37:31.182Z,12.62
2022-11-14T03:39:02.532Z,12.85
2022-11-14T03:40:33.787Z,12.19
2022-11-14T03:42:05.051Z,11.58
2022-11-14T03:43:36.373Z,11.89
2022-11-14T03:45:07.955Z,15.44
2022-11-14T03:46:39.149Z,14.52
2022-11-14T03:48:10.367Z,14.19
2022-11-14T03:49:41.731Z,15.17
2022-11-14T03:51:13.407Z,12.91
2022-11-14T03:52:44.902Z,12.34
2022-11-14T03:54:16.142Z,12.90
2022-11-14T03:55:47.408Z,12.12
2022-11-14T03:57:18.850Z,13.70
2022-11-14T03:58:50.215Z,13.52
2022-11-14T04:00:21.509Z,13.31
2022-11-14T04:01:52.846Z,13.37
2022-11-14T04:03:24.180Z,15.18
2022-11-14T04:04:55.521Z,14.40
2022-11-14T04:06:26.872Z,13.58
2022-11-14T04:07:58.215Z,14.66
2022-11-14T04:09:29.561Z,14.00
2022-11-14T04:11:00.777Z,13.00
2022-11-14T04:12:32.229Z,13.21
2022-11-14T04:14:03.630Z,12.78
2022-11-14T04:15:35.113Z,12.91
2022-11-14T04:17:06.313Z,13.93
2022-11-14T04:18:37.689Z,15.13
2022-11-14T04:20:08.905Z,13.92
2022-11-14T04:21:40.279Z,13.47
2022-11-14T04:23:11.528Z,14.09
2022-11-14T04:24:43.337Z,14.32
2022-11-14T04:26:14.727Z,13.56
2022-11-14T04:27:46.174Z,15.04
2022-11-14T04:29:17.425Z,12.63
2022-11-14T04:30:48.866Z,13.16
2022-11-14T04:32:20.298Z,13.58
2022-11-14T04:33:51.850Z,12.34
2022-11-14T04:35:23.087Z,12.90
2022-11-14T04:36:54.662Z,12.67
2022-11-14T04:38:25.913Z,13.06
2022-11-14T04:39:57.276Z,13.17
2022-11-14T04:41:28.589Z,12.43
2022-11-14T04:43:00.109Z,13.66
2022-11-14T04:44:31.817Z,13.16
2022-11-14T04:46:03.059Z,13.90
2022-11-14T04:47:34.498Z,13.07
2022-11-14T04:49:05.947Z,12.71
2022-11-14T04:50:37.313Z,11.95
2022-11-14T04:52:08.795Z,11.95
2022-11-14T04:53:40.193Z,12.84
2022-11-14T04:55:11.418Z,13.99
2022-11-14T04:56:42.804Z,12.22
2022-11-14T04:58:14.357Z,13.68
2022-11-14T04:59:45.599Z,12.40
2022-11-14T05:01:17.256Z,13.14
2022-11-14T05:02:48.629Z,13.47
2022-11-14T05:04:19.854Z,13.08
2022-11-14T05:05:51.530Z,12.90
2022-11-14T05:07:22.922Z,13.17
2022-11-14T05:08:54.630Z,13.11
2022-11-14T05:10:26.063Z,14.88
2022-11-14T05:11:57.303Z,13.12
2022-11-14T05:13:28.659Z,12.56
2022-11-14T05:15:00.163Z,14.40
2022-11-14T05:16:31.593Z,14.65
2022-11-14T05:18:03.097Z,13.18
2022-11-14T05:19:34.471Z,11.82
2022-11-14T05:21:05.814Z,13.38
2022-11-14T05:22:37.197Z,12.47
2022-11-14T05:24:08.621Z,13.10
2022-11-14T05:25:39.928Z,13.79
2022-11-14T05:27:11.228Z,13.24
2022-11-14T05:28:42.505Z,15.44
2022-11-14T05:30:13.926Z,14.50
2022-11-14T05:31:45.096Z,12.65
2022-11-14T05:33:16.345Z,13.20
2022-11-14T05:34:47.540Z,14.59
2022-11-14T05:36:18.713Z,13.88
2022-11-14T05:37:49.940Z,14.81
2022-11-14T05:39:21.268Z,14.48
2022-11-14T05:40:52.532Z,13.76
2022-11-14T05:42:23.874Z,13.89
2022-11-14T05:43:55.245Z,13.86
2022-11-14T05:45:26.449Z,14.04
2022-11-14T05:46:57.820Z,14.38
2022-11-14T05:48:29.678Z,12.81
2022-11-14T05:50:01.180Z,14.21
2022-11-14T05:51:32.428Z,15.50
2022-11-14T05:53:03.656Z,15.34
2022-11-14T05:54:55.125Z,14.66
2022-11-14T05:56:26.708Z,14.68
2022-11-14T05:57:58.122Z,14.17
2022-11-14T05:59:29.311Z,13.64
2022-11-14T06:01:00.884Z,13.62
2022-11-14T06:02:32.484Z,13.26
2022-11-14T06:04:04.021Z,14.69
2022-11-14T06:05:35.752Z,12.64
2022-11-14T06:07:06.974Z,13.77
2022-11-14T06:08:38.340Z,14.76
2022-11-14T06:10:40.642Z,13.68
2022-11-14T06:12:17.279Z,13.88
2022-11-14T06:13:49.074Z,13.78
2022-11-14T06:15:20.490Z,13.66
2022-11-14T06:16:51.661Z,12.04
2022-11-14T06:18:22.969Z,12.63
2022-11-14T06:19:54.287Z,12.23
2022-11-14T06:21:25.680Z,11.34
2022-11-14T06:22:56.988Z,12.16
2022-11-14T06:24:28.225Z,10.85
2022-11-14T06:26:00.857Z,9.55
2022-11-14T06:27:32.101Z,9.26
2022-11-14T06:29:04.321Z,9.42
2022-11-14T06:30:35.564Z,10.01
2022-11-14T06:32:06.781Z,9.85
2022-11-14T06:33:38.066Z,11.58
2022-11-14T06:35:09.386Z,10.45
2022-11-14T06:36:40.723Z,9.20
2022-11-14T06:38:29.278Z,9.18
2022-11-14T06:40:00.842Z,9.67
2022-11-14T06:41:32.283Z,10.53
2022-11-14T06:43:03.907Z,9.01
2022-11-14T06:44:35.179Z,11.34
2022-11-14T06:46:06.752Z,11.21
2022-11-14T06:47:38.061Z,8.74
2022-11-14T06:49:09.406Z,11.74
2022-11-14T06:50:40.911Z,10.91
2022-11-14T06:52:12.280Z,9.99
2022-11-14T06:53:43.457Z,10.68
2022-11-14T06:55:15.003Z,11.83
2022-11-14T06:56:46.265Z,10.77
2022-11-14T06:58:17.798Z,10.53
2022-11-14T06:59:49.129Z,10.75
2022-11-14T07:01:20.481Z,11.94
2022-11-14T07:02:51.878Z,12.02
2022-11-14T07:04:23.145Z,11.93
2022-11-14T07:05:56.602Z,12.59
2022-11-14T07:07:28.917Z,12.43
2022-11-14T07:09:00.416Z,12.82
2022-11-14T07:10:31.832Z,11.92
2022-11-14T07:12:08.048Z,12.07
2022-11-14T07:13:39.313Z,11.39
2022-11-14T07:15:10.667Z,10.29
2022-11-14T07:16:42.042Z,10.61
2022-11-14T07:18:14.955Z,12.18
2022-11-14T07:19:46.295Z,12.65
2022-11-14T07:21:17.525Z,12.95
2022-11-14T07:22:49.138Z,12.60
2022-11-14T07:24:20.651Z,11.94
2022-11-14T07:25:52.009Z,12.49
2022-11-14T07:27:23.350Z,12.62
2022-11-14T07:29:00.814Z,12.93
2022-11-14T07:30:33.667Z,13.48
2022-11-14T07:32:05.053Z,13.82
2022-11-14T07:33:36.754Z,14.10
2022-11-14T07:35:07.967Z,14.88
2022-11-14T07:36:39.311Z,13.81
2022-11-14T07:38:10.564Z,14.24
2022-11-14T07:39:42.007Z,14.72
2022-11-14T07:41:13.491Z,14.16
2022-11-14T07:42:44.806Z,14.44
2022-11-14T07:44:16.068Z,13.76
2022-11-14T07:45:48.247Z,13.32
2022-11-14T07:47:19.592Z,13.24
2022-11-14T07:48:51.008Z,13.94
2022-11-14T07:50:22.387Z,13.63
2022-11-14T07:51:53.816Z,14.02
2022-11-14T07:53:25.144Z,15.43
2022-11-14T07:54:56.784Z,16.05
2022-11-14T07:56:28.062Z,15.24
2022-11-14T07:57:59.299Z,14.49
2022-11-14T07:59:30.639Z,14.02
2022-11-14T08:01:01.969Z,14.89
2022-11-14T08:02:33.591Z,15.24
2022-11-14T08:04:04.896Z,17.09
2022-11-14T08:05:36.316Z,17.71
2022-11-14T08:07:07.676Z,16.92
2022-11-14T08:08:39.097Z,21.00
2022-11-14T08:10:10.500Z,20.54
2022-11-14T08:11:42.114Z,21.41
2022-11-14T08:13:31.495Z,20.99
2022-11-14T08:15:04.115Z,19.77
2022-11-14T08:16:35.315Z,18.90
2022-11-14T08:18:06.600Z,16.57
2022-11-14T08:19:37.946Z,17.94
2022-11-14T08:21:09.410Z,18.10
2022-11-14T08:22:40.889Z,18.88
2022-11-14T08:24:12.226Z,20.76
2022-11-14T08:25:43.601Z,18.66
2022-11-14T08:27:14.974Z,16.16
2022-11-14T08:28:46.249Z,17.67
2022-11-14T08:30:17.523Z,15.41
2022-11-14T08:31:48.780Z,15.91
2022-11-14T08:33:20.234Z,14.39
2022-11-14T08:34:51.515Z,15.28
2022-11-14T08:36:22.784Z,15.69
2022-11-14T08:37:54.051Z,16.01
2022-11-14T08:39:25.863Z,15.67
2022-11-14T08:40:57.305Z,18.35
2022-11-14T08:42:28.698Z,19.33
2022-11-14T08:44:00.185Z,18.47
2022-11-14T08:45:31.563Z,18.29
2022-11-14T08:47:02.925Z,17.97
2022-11-14T08:48:34.605Z,17.21
2022-11-14T08:50:05.956Z,17.61
2022-11-14T08:51:37.281Z,18.21
2022-11-14T08:53:08.539Z,18.02
2022-11-14T08:54:39.959Z,15.52
2022-11-14T08:56:11.303Z,15.46
2022-11-14T08:57:48.105Z,16.80
2022-11-14T08:59:20.912Z,16.97
2022-11-14T09:00:52.286Z,16.98
2022-11-14T09:02:23.598Z,17.61
2022-11-14T09:03:59.667Z,17.62
2022-11-14T09:05:31.349Z,24.52
2022-11-14T09:07:03.975Z,19.17
2022-11-14T09:08:35.513Z,19.31
2022-11-14T09:10:06.863Z,18.74
2022-11-14T09:11:38.257Z,15.67
2022-11-14T09:13:10.060Z,16.07
2022-11-14T09:14:41.326Z,17.75
2022-11-14T09:16:12.589Z,18.93
2022-11-14T09:17:43.814Z,18.31
2022-11-14T09:19:15.090Z,17.95
2022-11-14T09:20:46.482Z,18.11
2022-11-14T09:22:17.775Z,18.82
2022-11-14T09:23:49.062Z,19.36
2022-11-14T09:25:20.366Z,21.63
2022-11-14T09:26:56.443Z,19.16
2022-11-14T09:28:28.546Z,19.02
2022-11-14T09:29:59.756Z,19.84
2022-11-14T09:31:31.155Z,18.39
2022-11-14T09:33:06.920Z,20.48
2022-11-14T09:34:41.520Z,19.55
2022-11-14T09:36:13.099Z,21.05
2022-11-14T09:37:44.686Z,21.98
2022-11-14T09:39:16.090Z,20.11
2022-11-14T09:40:47.370Z,22.15
2022-11-14T09:42:18.644Z,20.60
2022-11-14T09:43:49.936Z,20.33
2022-11-14T09:45:21.319Z,24.79
2022-11-14T09:46:52.770Z,21.52
2022-11-14T09:48:24.010Z,20.97
2022-11-14T09:49:55.457Z,21.12
2022-11-14T09:51:26.823Z,21.99
2022-11-14T09:52:59.257Z,22.91
2022-11-14T09:54:30.655Z,19.72
2022-11-14T09:56:01.865Z,22.28
2022-11-14T09:57:33.257Z,21.21
2022-11-14T09:59:04.763Z,22.66
2022-11-14T10:00:36.144Z,19.97
2022-11-14T10:02:07.622Z,21.37
2022-11-14T10:03:38.918Z,21.99
2022-11-14T10:05:10.222Z,20.96
2022-11-14T10:06:41.807Z,21.75
2022-11-14T10:08:13.241Z,24.43
2022-11-14T10:09:44.557Z,23.48
2022-11-14T10:11:15.805Z,23.60
2022-11-14T10:12:47.611Z,23.36
2022-11-14T10:14:18.899Z,23.74
2022-11-14T10:15:50.576Z,25.45
2022-11-14T10:17:21.830Z,25.30
2022-11-14T10:18:53.143Z,24.17
2022-11-14T10:20:24.438Z,26.41
2022-11-14T10:21:55.833Z,24.62
2022-11-14T10:23:27.528Z,22.50
2022-11-14T10:24:59.056Z,23.98
2022-11-14T10:26:30.510Z,24.55
2022-11-14T10:28:05.154Z,23.18
2022-11-14T10:29:36.696Z,23.94
2022-11-14T10:31:07.972Z,23.08
2022-11-14T10:32:39.314Z,24.06
2022-11-14T10:34:10.597Z,23.02
2022-11-14T10:35:41.874Z,23.03
2022-11-14T10:37:13.202Z,21.02
2022-11-14T10:38:44.698Z,21.77
2022-11-14T10:40:15.937Z,19.30
2022-11-14T10:41:57.959Z,20.15
2022-11-14T10:43:32.254Z,20.52
2022-11-14T10:45:03.527Z,22.99
2022-11-14T10:46:35.106Z,25.08
2022-11-14T10:48:06.411Z,21.18
2022-11-14T10:49:37.698Z,21.18
2022-11-14T10:51:29.240Z,20.82
2022-11-14T10:53:21.178Z,22.25
2022-11-14T10:55:02.712Z,22.22
2022-11-14T10:56:34.452Z,21.08
2022-11-14T10:58:06.112Z,20.28
2022-11-14T10:59:37.545Z,19.78
2022-11-14T11:01:08.945Z,20.73
2022-11-14T11:02:40.482Z,20.38
2022-11-14T11:04:11.815Z,20.61
2022-11-14T11:05:43.090Z,19.61
2022-11-14T11:07:14.468Z,18.43
2022-11-14T11:08:46.826Z,19.04
2022-11-14T11:10:18.408Z,18.10
2022-11-14T11:11:49.742Z,19.03
2022-11-14T11:13:21.067Z,19.90
2022-11-14T11:14:52.780Z,16.95
2022-11-14T11:16:24.011Z,18.04
2022-11-14T11:17:55.340Z,18.50
2022-11-14T11:19:26.690Z,18.74
2022-11-14T11:20:58.111Z,17.84
2022-11-14T11:22:29.517Z,16.78
2022-11-14T11:24:00.796Z,17.63
2022-11-14T11:25:32.230Z,17.30
2022-11-14T11:27:03.616Z,17.40
2022-11-14T11:28:35.088Z,18.19
2022-11-14T11:30:06.505Z,17.43
2022-11-14T11:31:37.753Z,17.48
2022-11-14T11:33:08.971Z,19.59
2022-11-14T11:34:40.438Z,17.71
2022-11-14T11:36:11.671Z,16.27
2022-11-14T11:37:43.094Z,16.44
2022-11-14T11:39:14.409Z,18.16
2022-11-14T11:40:45.740Z,17.91
2022-11-14T11:42:17.260Z,16.88
2022-11-14T11:43:52.455Z,17.97
2022-11-14T11:45:26.920Z,20.34
2022-11-14T11:46:58.181Z,26.18
2022-11-14T11:48:29.643Z,18.28
2022-11-14T11:50:01.091Z,16.67
2022-11-14T11:51:32.468Z,16.68
2022-11-14T11:53:03.803Z,17.83
2022-11-14T11:54:35.094Z,15.83
2022-11-14T11:56:06.851Z,15.02
2022-11-14T11:57:38.140Z,16.40
2022-11-14T11:59:09.473Z,15.58
2022-11-14T12:00:40.782Z,14.30
2022-11-14T12:02:12.985Z,14.38
2022-11-14T12:03:44.909Z,16.06
2022-11-14T12:05:16.340Z,15.34
2022-11-14T12:06:47.707Z,14.80
2022-11-14T12:08:21.591Z,14.20
2022-11-14T12:10:10.356Z,14.87
2022-11-14T12:11:42.390Z,14.32
2022-11-14T12:13:13.738Z,12.37
2022-11-14T12:14:45.213Z,13.61
2022-11-14T12:16:16.515Z,15.14
2022-11-14T12:17:47.952Z,15.48
2022-11-14T12:19:19.226Z,15.00
2022-11-14T12:20:50.614Z,16.07
2022-11-14T12:22:21.993Z,14.44
2022-11-14T12:23:53.399Z,13.39
2022-11-14T12:25:24.810Z,13.34
2022-11-14T12:26:56.207Z,13.35
2022-11-14T12:28:27.583Z,13.98
2022-11-14T12:29:58.957Z,13.07
2022-11-14T12:31:30.424Z,12.76
2022-11-14T12:33:01.863Z,12.99
2022-11-14T12:34:33.155Z,13.94
2022-11-14T12:36:04.508Z,13.53
2022-11-14T12:37:36.092Z,15.02
2022-11-14T12:39:07.427Z,14.07
2022-11-14T12:40:39.571Z,13.24
2022-11-14T12:42:10.817Z,13.20
2022-11-14T12:43:42.483Z,13.86
2022-11-14T12:45:14.110Z,13.06
2022-11-14T12:46:45.468Z,13.30
2022-11-14T12:48:16.963Z,13.65
2022-11-14T12:49:48.221Z,12.33
2022-11-14T12:51:19.548Z,13.13
2022-11-14T12:52:51.164Z,13.74
2022-11-14T12:54:22.503Z,13.84
2022-11-14T12:55:53.847Z,13.05
2022-11-14T12:57:25.167Z,14.02
2022-11-14T12:58:56.421Z,13.57
2022-11-14T13:00:27.715Z,13.60
2022-11-14T13:01:59.012Z,13.84
2022-11-14T13:03:30.658Z,12.72
2022-11-14T13:05:02.094Z,12.72
2022-11-14T13:06:33.341Z,12.96
2022-11-14T13:08:04.792Z,13.49
2022-11-14T13:09:36.038Z,12.24
2022-11-14T13:11:07.374Z,13.29
2022-11-14T13:12:38.613Z,12.17
2022-11-14T13:14:09.820Z,12.15
2022-11-14T13:15:45.925Z,12.67
2022-11-14T13:17:24.871Z,13.56
2022-11-14T13:18:56.205Z,12.90
2022-11-14T13:20:27.460Z,13.37
2022-11-14T13:21:58.785Z,13.20
2022-11-14T13:23:30.559Z,14.63
2022-11-14T13:25:02.176Z,14.01
2022-11-14T13:26:33.869Z,13.26
2022-11-14T13:28:08.930Z,13.51
2022-11-14T13:29:42.876Z,13.82
2022-11-14T13:31:14.300Z,14.10
2022-11-14T13:32:45.666Z,14.42
2022-11-14T13:34:17.095Z,15.23
2022-11-14T13:35:49.240Z,13.52
2022-11-14T13:37:20.497Z,14.82
2022-11-14T13:38:51.848Z,14.94
2022-11-14T13:40:24.026Z,13.56
2022-11-14T13:41:56.251Z,13.71
2022-11-14T13:43:28.064Z,14.91
2022-11-14T13:44:59.555Z,13.55
2022-11-14T13:46:31.090Z,15.52
2022-11-14T13:48:02.423Z,16.62
2022-11-14T13:49:33.801Z,13.07
2022-11-14T13:51:21.882Z,14.16
2022-11-14T13:53:07.937Z,15.48
2022-11-14T13:54:39.487Z,15.19
2022-11-14T13:56:10.907Z,13.40
2022-11-14T13:57:42.356Z,16.49
2022-11-14T13:59:14.832Z,14.41
2022-11-14T14:00:46.111Z,14.86
2022-11-14T14:02:17.492Z,14.68
2022-11-14T14:03:53.901Z,14.09
2022-11-14T14:05:25.343Z,15.00
2022-11-14T14:06:56.784Z,14.65
2022-11-14T14:08:28.140Z,14.01
2022-11-14T14:09:59.474Z,15.84
2022-11-14T14:11:30.917Z,16.35
2022-11-14T14:13:02.722Z,14.68
2022-11-14T14:14:34.225Z,14.54
2022-11-14T14:16:05.606Z,14.57
2022-11-14T14:17:36.892Z,15.99
2022-11-14T14:19:08.196Z,18.90
2022-11-14T14:20:39.465Z,17.60
2022-11-14T14:22:10.791Z,15.36
2022-11-14T14:23:42.137Z,14.70
2022-11-14T14:25:13.451Z,15.08
2022-11-14T14:26:44.990Z,14.92
2022-11-14T14:28:16.324Z,16.41
2022-11-14T14:29:47.720Z,15.25
2022-11-14T14:31:19.063Z,13.73
2022-11-14T14:32:50.397Z,13.72
2022-11-14T14:34:21.742Z,13.73
2022-11-14T14:35:53.282Z,12.96
2022-11-14T14:37:24.911Z,12.67
2022-11-14T14:38:56.371Z,12.51
2022-11-14T14:40:27.690Z,14.68
2022-11-14T14:41:59.024Z,13.74
2022-11-14T14:43:30.547Z,13.32
2022-11-14T14:45:01.948Z,14.86
2022-11-14T14:46:33.266Z,13.69
2022-11-14T14:48:04.558Z,15.33
2022-11-14T14:49:35.798Z,14.58
2022-11-14T14:51:07.282Z,16.29
2022-11-14T14:52:38.550Z,17.07
2022-11-14T14:54:09.927Z,16.16
2022-11-14T14:55:41.250Z,14.86
2022-11-14T14:57:12.465Z,15.14
2022-11-14T14:58:43.824Z,13.49
2022-11-14T15:00:15.255Z,13.63
2022-11-14T15:01:46.773Z,14.02
2022-11-14T15:03:18.474Z,14.22
2022-11-14T15:04:49.736Z,15.74
2022-11-14T15:06:21.030Z,15.73
2022-11-14T15:07:52.295Z,13.99
2022-11-14T15:09:23.635Z,14.04
2022-11-14T15:10:55.059Z,14.08
2022-11-14T15:12:26.349Z,14.56
2022-11-14T15:13:57.678Z,13.89
2022-11-14T15:15:29.032Z,15.21
2022-11-14T15:17:00.454Z,17.10
2022-11-14T15:18:32.309Z,15.04
2022-11-14T15:20:04.099Z,14.77
2022-11-14T15:21:35.459Z,13.22
2022-11-14T15:23:06.751Z,15.90
2022-11-14T15:24:38.211Z,15.39
2022-11-14T15:26:09.439Z,14.51
2022-11-14T15:27:40.860Z,15.26
2022-11-14T15:29:12.119Z,15.51
2022-11-14T15:30:43.484Z,15.09
2022-11-14T15:32:14.678Z,15.20
2022-11-14T15:33:45.947Z,16.24
2022-11-14T15:35:20.193Z,16.63
2022-11-14T15:36:55.340Z,16.00
2022-11-14T15:38:43.679Z,16.19
2022-11-14T15:40:25.975Z,15.48
2022-11-14T15:41:57.299Z,16.66
2022-11-14T15:43:28.544Z,15.72
2022-11-14T15:44:59.900Z,14.13
2022-11-14T15:46:31.443Z,15.06
2022-11-14T15:48:02.936Z,14.44
2022-11-14T15:49:34.316Z,14.39
2022-11-14T15:51:05.697Z,14.08
2022-11-14T15:52:37.461Z,13.02
2022-11-14T15:54:08.825Z,15.96
2022-11-14T15:55:40.138Z,14.71
2022-11-14T15:57:11.541Z,13.98
2022-11-14T15:58:46.757Z,13.88
2022-11-14T16:00:20.664Z,14.07
2022-11-14T16:01:52.168Z,12.94
2022-11-14T16:03:23.623Z,13.03
2022-11-14T16:04:55.256Z,13.13
2022-11-14T16:06:26.615Z,13.30
2022-11-14T16:07:57.930Z,13.00
2022-11-14T16:09:29.262Z,16.47
2022-11-14T16:11:00.574Z,14.18
2022-11-14T16:12:31.911Z,13.48
2022-11-14T16:14:03.222Z,12.59
2022-11-14T16:15:34.597Z,13.99
2022-11-14T16:17:06.040Z,14.52
2022-11-14T16:18:37.436Z,13.12
2022-11-14T16:20:21.999Z,13.17
2022-11-14T16:21:53.273Z,13.66
2022-11-14T16:23:25.149Z,14.58
2022-11-14T16:24:56.521Z,12.97
2022-11-14T16:26:27.769Z,12.50
2022-11-14T16:27:59.210Z,13.46
2022-11-14T16:29:30.543Z,13.42
2022-11-14T16:31:02.024Z,13.78
2022-11-14T16:32:33.456Z,13.36
2022-11-14T16:34:04.753Z,14.93
2022-11-14T16:35:36.403Z,16.30
2022-11-14T16:37:07.597Z,15.78
2022-11-14T16:38:38.974Z,14.36
2022-11-14T16:40:10.384Z,13.65
2022-11-14T16:41:41.927Z,15.14
2022-11-14T16:43:13.135Z,17.27
2022-11-14T16:44:50.361Z,16.28
2022-11-14T16:46:49.280Z,15.26
2022-11-14T16:48:21.576Z,16.38
2022-11-14T16:49:53.431Z,18.42
2022-11-14T16:51:46.231Z,20.16
2022-11-14T16:53:19.072Z,18.92
2022-11-14T16:54:55.411Z,20.70
2022-11-14T16:56:26.981Z,23.60
2022-11-14T16:57:58.523Z,27.02
2022-11-14T16:59:29.764Z,27.67
2022-11-14T17:01:01.445Z,20.77
2022-11-14T17:02:32.829Z,18.44
2022-11-14T17:04:04.082Z,17.98
2022-11-14T17:05:35.427Z,17.89
2022-11-14T17:07:06.702Z,15.26
2022-11-14T17:08:37.977Z,16.23
2022-11-14T17:10:09.200Z,19.57
2022-11-14T17:11:40.594Z,15.58
2022-11-14T17:13:11.902Z,18.22
2022-11-14T17:14:43.153Z,17.03
2022-11-14T17:16:14.597Z,18.07
2022-11-14T17:17:45.903Z,17.17
2022-11-14T17:19:17.165Z,18.37
2022-11-14T17:20:48.473Z,15.69
2022-11-14T17:22:19.813Z,15.52
2022-11-14T17:25:56.680Z,18.63
2022-11-14T17:27:27.917Z,21.30
2022-11-14T17:28:59.217Z,19.50
2022-11-14T17:30:30.819Z,18.30
2022-11-14T17:32:02.022Z,17.45
2022-11-14T17:33:38.342Z,17.66
2022-11-14T17:35:09.571Z,17.27
2022-11-14T17:36:51.930Z,16.45
2022-11-14T17:39:08.440Z,16.24
2022-11-14T17:40:39.714Z,15.15
2022-11-14T17:42:10.991Z,17.11
2022-11-14T17:43:42.518Z,17.61
2022-11-14T17:45:37.881Z,16.62
2022-11-14T17:47:11.796Z,16.16
2022-11-14T17:48:43.219Z,15.00
2022-11-14T17:50:25.246Z,19.55
2022-11-14T17:51:56.757Z,17.44
2022-11-14T17:53:28.378Z,19.14
2022-11-14T17:54:59.791Z,17.11
2022-11-14T17:56:31.188Z,17.16
2022-11-14T17:58:02.592Z,19.35
2022-11-14T17:59:53.838Z,20.61
2022-11-14T18:01:25.404Z,22.92
2022-11-14T18:02:56.883Z,20.90
2022-11-14T18:04:28.413Z,21.20
2022-11-14T18:06:06.880Z,22.29
2022-11-14T18:07:38.505Z,20.86
2022-11-14T18:09:14.065Z,24.33
2022-11-14T18:10:45.977Z,18.72
2022-11-14T18:12:17.276Z,16.28
2022-11-14T18:13:48.810Z,14.82
2022-11-14T18:15:23.900Z,16.81
2022-11-14T18:17:12.399Z,15.06
2022-11-14T18:18:44.625Z,15.13
2022-11-14T18:20:15.855Z,13.96
2022-11-14T18:21:53.887Z,13.21
2022-11-14T18:23:25.596Z,15.42
2022-11-14T18:24:56.910Z,14.43
2022-11-14T18:26:48.345Z,15.15
2022-11-14T18:28:38.248Z,17.14
2022-11-14T18:30:40.269Z,15.59
2022-11-14T18:32:12.518Z,15.73
2022-11-14T18:33:48.757Z,15.83
2022-11-14T18:35:19.984Z,15.35
2022-11-14T18:36:51.327Z,15.05
2022-11-14T18:38:22.648Z,13.94
2022-11-14T18:40:00.039Z,16.06
2022-11-14T18:41:31.680Z,15.12
2022-11-14T18:43:15.314Z,16.89
2022-11-14T18:44:56.737Z,17.02
2022-11-14T18:46:31.871Z,15.74
2022-11-14T18:48:05.958Z,16.24
2022-11-14T18:49:37.373Z,14.49
2022-11-14T18:51:13.655Z,14.19
2022-11-14T18:52:45.015Z,15.32
2022-11-14T18:54:16.505Z,15.01
2022-11-14T18:55:48.069Z,14.94
2022-11-14T18:57:19.368Z,14.48
2022-11-14T18:58:50.656Z,15.70
2022-11-14T19:00:22.048Z,14.98
2022-11-14T19:01:53.771Z,17.99
2022-11-14T19:03:25.505Z,16.73
2022-11-14T19:04:57.203Z,15.80
2022-11-14T19:06:28.824Z,15.88
2022-11-14T19:08:05.448Z,15.24
2022-11-14T19:09:37.061Z,17.02
2022-11-14T19:11:08.748Z,15.03
2022-11-14T19:12:40.279Z,16.96
2022-11-14T19:14:11.761Z,16.40
2022-11-14T19:15:43.168Z,16.52
2022-11-14T19:17:14.720Z,16.28
2022-11-14T19:18:46.012Z,17.23
2022-11-14T19:20:17.319Z,15.86
2022-11-14T19:21:48.581Z,15.57
2022-11-14T19:24:00.131Z,15.91
2022-11-14T19:25:37.715Z,16.84
2022-11-14T19:27:09.701Z,16.77
2022-11-14T19:28:41.164Z,16.33
2022-11-14T19:30:17.876Z,16.47
2022-11-14T19:32:08.109Z,16.05
2022-11-14T19:33:49.357Z,15.85
2022-11-14T19:35:22.175Z,14.97
2022-11-14T19:37:08.665Z,15.21
2022-11-14T19:38:40.230Z,15.78
2022-11-14T19:40:16.513Z,16.77
2022-11-14T19:41:47.910Z,15.87
2022-11-14T19:43:31.321Z,14.85
2022-11-14T19:45:03.207Z,16.36
2022-11-14T19:46:47.866Z,15.32
2022-11-14T19:48:24.631Z,15.17
2022-11-14T19:50:01.093Z,15.30
2022-11-14T19:51:32.900Z,15.09
2022-11-14T19:53:04.329Z,15.13
2022-11-14T19:56:40.549Z,15.17
2022-11-14T19:58:16.849Z,14.93